sensor_id;sensor_type;location;lat;lon;timestamp;P1;durP1;ratioP1;P2;durP2;ratioP2
64669;SDS011;51080;51.690;5.174;2022-10-04T00:02:52;20.10;;;12.30;;
64669;SDS011;51080;51.690;5.174;2022-10-04T00:14:36;18.00;;;12.60;;
64669;SDS011;51080;51.690;5.174;2022-10-04T00:38:27;20.60;;;12.60;;
64669;SDS011;51080;51.690;5.174;2022-10-04T00:44:17;19.10;;;12.90;;
64669;SDS011;51080;51.690;5.174;2022-10-04T00:50:24;18.90;;;11.90;;
64669;SDS011;51080;51.690;5.174;2022-10-04T00:56:10;19.70;;;12.40;;
64669;SDS011;51080;51.690;5.174;2022-10-04T01:02:13;21.30;;;13.10;;
64669;SDS011;51080;51.690;5.174;2022-10-04T01:08:24;19.90;;;12.50;;
64669;SDS011;51080;51.690;5.174;2022-10-04T01:14:18;19.30;;;12.30;;
64669;SDS011;51080;51.690;5.174;2022-10-04T01:32:20;19.40;;;12.50;;
64669;SDS011;51080;51.690;5.174;2022-10-04T01:38:04;22.90;;;12.00;;
64669;SDS011;51080;51.690;5.174;2022-10-04T01:43:49;22.80;;;12.40;;
64669;SDS011;51080;51.690;5.174;2022-10-04T01:49:37;18.40;;;12.30;;
64669;SDS011;51080;51.690;5.174;2022-10-04T01:55:53;18.70;;;12.30;;
64669;SDS011;51080;51.690;5.174;2022-10-04T02:01:44;22.30;;;13.40;;
64669;SDS011;51080;51.690;5.174;2022-10-04T02:07:32;21.50;;;13.30;;
64669;SDS011;51080;51.690;5.174;2022-10-04T02:13:18;20.60;;;12.90;;
64669;SDS011;51080;51.690;5.174;2022-10-04T02:19:03;18.90;;;11.60;;
64669;SDS011;51080;51.690;5.174;2022-10-04T02:24:51;23.10;;;12.80;;
64669;SDS011;51080;51.690;5.174;2022-10-04T02:30:37;19.00;;;11.80;;
64669;SDS011;51080;51.690;5.174;2022-10-04T02:36:24;18.40;;;11.20;;
64669;SDS011;51080;51.690;5.174;2022-10-04T02:42:20;18.70;;;11.80;;
64669;SDS011;51080;51.690;5.174;2022-10-04T02:55:01;18.40;;;11.30;;
64669;SDS011;51080;51.690;5.174;2022-10-04T03:00:58;18.40;;;12.10;;
64669;SDS011;51080;51.690;5.174;2022-10-04T03:06:38;18.40;;;12.20;;
64669;SDS011;51080;51.690;5.174;2022-10-04T03:12:23;18.90;;;11.90;;
64669;SDS011;51080;51.690;5.174;2022-10-04T03:18:07;19.40;;;12.50;;
64669;SDS011;51080;51.690;5.174;2022-10-04T03:23:52;21.10;;;12.80;;
64669;SDS011;51080;51.690;5.174;2022-10-04T03:29:38;19.70;;;13.00;;
64669;SDS011;51080;51.690;5.174;2022-10-04T03:35:28;24.70;;;15.60;;
64669;SDS011;51080;51.690;5.174;2022-10-04T03:41:16;21.50;;;14.70;;
64669;SDS011;51080;51.690;5.174;2022-10-04T03:47:00;23.20;;;15.00;;
64669;SDS011;51080;51.690;5.174;2022-10-04T03:52:53;22.50;;;15.20;;
64669;SDS011;51080;51.690;5.174;2022-10-04T03:58:37;21.50;;;14.90;;
64669;SDS011;51080;51.690;5.174;2022-10-04T04:10:34;25.20;;;16.20;;
64669;SDS011;51080;51.690;5.174;2022-10-04T04:16:21;25.90;;;15.60;;
64669;SDS011;51080;51.690;5.174;2022-10-04T04:22:08;23.60;;;14.50;;
64669;SDS011;51080;51.690;5.174;2022-10-04T04:28:02;23.40;;;15.60;;
64669;SDS011;51080;51.690;5.174;2022-10-04T04:33:56;22.80;;;15.00;;
64669;SDS011;51080;51.690;5.174;2022-10-04T04:39:42;25.10;;;16.10;;
64669;SDS011;51080;51.690;5.174;2022-10-04T04:45:26;23.70;;;15.80;;
64669;SDS011;51080;51.690;5.174;2022-10-04T04:57:03;23.00;;;14.40;;
64669;SDS011;51080;51.690;5.174;2022-10-04T05:02:51;23.10;;;15.10;;
64669;SDS011;51080;51.690;5.174;2022-10-04T05:08:37;24.10;;;15.40;;
64669;SDS011;51080;51.690;5.174;2022-10-04T05:14:22;26.80;;;18.10;;
64669;SDS011;51080;51.690;5.174;2022-10-04T05:20:06;29.40;;;17.70;;
64669;SDS011;51080;51.690;5.174;2022-10-04T05:25:49;32.70;;;17.50;;
64669;SDS011;51080;51.690;5.174;2022-10-04T05:43:31;28.90;;;18.20;;
64669;SDS011;51080;51.690;5.174;2022-10-04T05:49:18;29.00;;;17.00;;
64669;SDS011;51080;51.690;5.174;2022-10-04T05:55:14;32.30;;;19.30;;
64669;SDS011;51080;51.690;5.174;2022-10-04T06:01:10;29.40;;;18.90;;
64669;SDS011;51080;51.690;5.174;2022-10-04T06:07:14;30.70;;;19.20;;
64669;SDS011;51080;51.690;5.174;2022-10-04T06:25:26;29.20;;;18.60;;
64669;SDS011;51080;51.690;5.174;2022-10-04T06:31:21;29.00;;;17.80;;
64669;SDS011;51080;51.690;5.174;2022-10-04T07:02:40;28.90;;;18.60;;
64669;SDS011;51080;51.690;5.174;2022-10-04T07:14:35;32.60;;;18.90;;
64669;SDS011;51080;51.690;5.174;2022-10-04T07:20:27;33.20;;;19.60;;
64669;SDS011;51080;51.690;5.174;2022-10-04T07:26:21;31.20;;;19.90;;
64669;SDS011;51080;51.690;5.174;2022-10-04T07:32:19;31.50;;;20.70;;
64669;SDS011;51080;51.690;5.174;2022-10-04T07:38:09;34.90;;;20.30;;
64669;SDS011;51080;51.690;5.174;2022-10-04T07:44:36;34.00;;;18.90;;
64669;SDS011;51080;51.690;5.174;2022-10-04T07:50:24;30.70;;;18.70;;
64669;SDS011;51080;51.690;5.174;2022-10-04T07:56:18;31.80;;;19.30;;
64669;SDS011;51080;51.690;5.174;2022-10-04T08:02:28;26.70;;;19.10;;
64669;SDS011;51080;51.690;5.174;2022-10-04T08:14:52;27.50;;;17.50;;
64669;SDS011;51080;51.690;5.174;2022-10-04T08:20:57;26.80;;;16.60;;
64669;SDS011;51080;51.690;5.174;2022-10-04T08:33:47;20.50;;;12.70;;
64669;SDS011;51080;51.690;5.174;2022-10-04T08:39:54;19.40;;;12.00;;
64669;SDS011;51080;51.690;5.174;2022-10-04T08:58:38;14.60;;;8.80;;
64669;SDS011;51080;51.690;5.174;2022-10-04T09:10:53;15.00;;;8.00;;
64669;SDS011;51080;51.690;5.174;2022-10-04T09:29:34;11.50;;;6.00;;
64669;SDS011;51080;51.690;5.174;2022-10-04T09:35:45;11.60;;;6.00;;
64669;SDS011;51080;51.690;5.174;2022-10-04T09:47:45;9.40;;;6.00;;
64669;SDS011;51080;51.690;5.174;2022-10-04T10:18:24;10.50;;;6.00;;
64669;SDS011;51080;51.690;5.174;2022-10-04T10:30:37;9.60;;;5.40;;
64669;SDS011;51080;51.690;5.174;2022-10-04T10:42:50;11.80;;;5.80;;
64669;SDS011;51080;51.690;5.174;2022-10-04T11:32:13;9.30;;;4.20;;
64669;SDS011;51080;51.690;5.174;2022-10-04T11:38:01;7.30;;;4.00;;
64669;SDS011;51080;51.690;5.174;2022-10-04T11:50:07;8.60;;;4.00;;
64669;SDS011;51080;51.690;5.174;2022-10-04T11:56:12;8.60;;;3.90;;
64669;SDS011;51080;51.690;5.174;2022-10-04T12:08:31;8.80;;;4.20;;
64669;SDS011;51080;51.690;5.174;2022-10-04T12:27:09;9.90;;;4.20;;
64669;SDS011;51080;51.690;5.174;2022-10-04T12:39:02;8.60;;;4.40;;
64669;SDS011;51080;51.690;5.174;2022-10-04T12:45:11;8.30;;;4.30;;
64669;SDS011;51080;51.690;5.174;2022-10-04T12:57:27;7.60;;;4.40;;
64669;SDS011;51080;51.690;5.174;2022-10-04T13:09:47;9.90;;;4.40;;
64669;SDS011;51080;51.690;5.174;2022-10-04T13:15:49;8.10;;;3.90;;
64669;SDS011;51080;51.690;5.174;2022-10-04T14:17:17;9.40;;;4.30;;
64669;SDS011;51080;51.690;5.174;2022-10-04T14:35:59;10.60;;;3.80;;
64669;SDS011;51080;51.690;5.174;2022-10-04T14:48:04;6.80;;;3.50;;
64669;SDS011;51080;51.690;5.174;2022-10-04T14:54:02;10.10;;;3.50;;
64669;SDS011;51080;51.690;5.174;2022-10-04T15:00:07;8.50;;;4.00;;
64669;SDS011;51080;51.690;5.174;2022-10-04T15:12:01;6.70;;;3.40;;
64669;SDS011;51080;51.690;5.174;2022-10-04T15:18:26;7.40;;;3.60;;
64669;SDS011;51080;51.690;5.174;2022-10-04T16:25:39;8.20;;;4.00;;
64669;SDS011;51080;51.690;5.174;2022-10-04T16:31:40;11.20;;;4.20;;
64669;SDS011;51080;51.690;5.174;2022-10-04T16:37:37;8.50;;;3.70;;
64669;SDS011;51080;51.690;5.174;2022-10-04T16:43:28;7.90;;;4.00;;
64669;SDS011;51080;51.690;5.174;2022-10-04T16:49:24;9.00;;;4.10;;
64669;SDS011;51080;51.690;5.174;2022-10-04T16:55:22;9.30;;;4.30;;
64669;SDS011;51080;51.690;5.174;2022-10-04T17:07:39;8.10;;;4.00;;
64669;SDS011;51080;51.690;5.174;2022-10-04T17:13:54;9.70;;;4.60;;
64669;SDS011;51080;51.690;5.174;2022-10-04T17:51:44;11.10;;;5.10;;
64669;SDS011;51080;51.690;5.174;2022-10-04T17:57:38;9.70;;;4.90;;
64669;SDS011;51080;51.690;5.174;2022-10-04T18:04:08;9.80;;;5.00;;
64669;SDS011;51080;51.690;5.174;2022-10-04T18:10:14;10.40;;;5.20;;
64669;SDS011;51080;51.690;5.174;2022-10-04T18:16:42;9.50;;;5.30;;
64669;SDS011;51080;51.690;5.174;2022-10-04T18:22:50;10.30;;;5.50;;
64669;SDS011;51080;51.690;5.174;2022-10-04T18:28:51;8.70;;;5.80;;
64669;SDS011;51080;51.690;5.174;2022-10-04T18:34:36;10.50;;;6.10;;
64669;SDS011;51080;51.690;5.174;2022-10-04T18:40:34;10.20;;;5.60;;
64669;SDS011;51080;51.690;5.174;2022-10-04T18:46:27;9.80;;;5.80;;
64669;SDS011;51080;51.690;5.174;2022-10-04T18:52:33;11.50;;;5.80;;
64669;SDS011;51080;51.690;5.174;2022-10-04T18:58:36;10.20;;;5.40;;
64669;SDS011;51080;51.690;5.174;2022-10-04T19:04:43;12.30;;;7.70;;
64669;SDS011;51080;51.690;5.174;2022-10-04T19:10:53;11.40;;;7.60;;
64669;SDS011;51080;51.690;5.174;2022-10-04T19:16:56;10.50;;;6.10;;
64669;SDS011;51080;51.690;5.174;2022-10-04T19:29:22;9.50;;;5.90;;
64669;SDS011;51080;51.690;5.174;2022-10-04T19:35:23;11.40;;;7.20;;
64669;SDS011;51080;51.690;5.174;2022-10-04T19:53:27;10.60;;;7.00;;
64669;SDS011;51080;51.690;5.174;2022-10-04T20:05:25;12.20;;;6.10;;
64669;SDS011;51080;51.690;5.174;2022-10-04T20:11:18;10.60;;;6.60;;
64669;SDS011;51080;51.690;5.174;2022-10-04T20:17:09;9.40;;;5.80;;
64669;SDS011;51080;51.690;5.174;2022-10-04T20:23:07;14.00;;;7.20;;
64669;SDS011;51080;51.690;5.174;2022-10-04T20:28:58;12.40;;;6.50;;
64669;SDS011;51080;51.690;5.174;2022-10-04T20:34:47;10.90;;;6.40;;
64669;SDS011;51080;51.690;5.174;2022-10-04T20:40:41;11.80;;;6.60;;
64669;SDS011;51080;51.690;5.174;2022-10-04T20:46:32;11.20;;;6.50;;
64669;SDS011;51080;51.690;5.174;2022-10-04T20:52:25;10.70;;;6.70;;
64669;SDS011;51080;51.690;5.174;2022-10-04T21:04:22;10.30;;;6.60;;
64669;SDS011;51080;51.690;5.174;2022-10-04T21:10:19;11.20;;;7.10;;
64669;SDS011;51080;51.690;5.174;2022-10-04T21:16:08;11.30;;;6.90;;
64669;SDS011;51080;51.690;5.174;2022-10-04T21:22:02;10.40;;;6.60;;
64669;SDS011;51080;51.690;5.174;2022-10-04T21:28:20;10.00;;;6.60;;
64669;SDS011;51080;51.690;5.174;2022-10-04T21:34:08;10.90;;;7.10;;
64669;SDS011;51080;51.690;5.174;2022-10-04T21:39:59;12.70;;;6.80;;
64669;SDS011;51080;51.690;5.174;2022-10-04T21:45:49;12.70;;;7.20;;
64669;SDS011;51080;51.690;5.174;2022-10-04T21:51:39;13.40;;;7.00;;
64669;SDS011;51080;51.690;5.174;2022-10-04T21:57:29;10.70;;;7.10;;
64669;SDS011;51080;51.690;5.174;2022-10-04T22:03:19;10.80;;;7.10;;
64669;SDS011;51080;51.690;5.174;2022-10-04T22:09:12;11.30;;;6.70;;
64669;SDS011;51080;51.690;5.174;2022-10-04T22:15:04;12.60;;;7.50;;
64669;SDS011;51080;51.690;5.174;2022-10-04T22:20:53;10.20;;;6.50;;
64669;SDS011;51080;51.690;5.174;2022-10-04T22:26:44;13.50;;;7.10;;
64669;SDS011;51080;51.690;5.174;2022-10-04T22:32:34;13.20;;;7.10;;
64669;SDS011;51080;51.690;5.174;2022-10-04T22:38:27;10.00;;;6.90;;
64669;SDS011;51080;51.690;5.174;2022-10-04T22:44:18;12.70;;;6.80;;
64669;SDS011;51080;51.690;5.174;2022-10-04T22:50:22;9.90;;;6.30;;
64669;SDS011;51080;51.690;5.174;2022-10-04T22:56:19;10.30;;;6.30;;
64669;SDS011;51080;51.690;5.174;2022-10-04T23:02:16;9.40;;;6.10;;
64669;SDS011;51080;51.690;5.174;2022-10-04T23:08:08;9.70;;;6.20;;
64669;SDS011;51080;51.690;5.174;2022-10-04T23:13:57;12.30;;;5.90;;
64669;SDS011;51080;51.690;5.174;2022-10-04T23:19:50;9.50;;;5.60;;
64669;SDS011;51080;51.690;5.174;2022-10-04T23:25:41;9.10;;;6.30;;
64669;SDS011;51080;51.690;5.174;2022-10-04T23:31:31;10.10;;;6.50;;
64669;SDS011;51080;51.690;5.174;2022-10-04T23:37:25;11.20;;;6.20;;
64669;SDS011;51080;51.690;5.174;2022-10-04T23:43:21;11.30;;;7.10;;
64669;SDS011;51080;51.690;5.174;2022-10-04T23:49:14;10.50;;;6.60;;
64669;SDS011;51080;51.690;5.174;2022-10-04T23:55:23;11.90;;;7.10;;
